Rechercher aéroport 
image banner adimage banner adimage banner ad
image banner ad

KDAG - Barstow-Daggett

Situé à Daggett, United States

ICAO - DAG, IATA - DAG

Données fournies par Airmate  

Information générale

Coordonnées: N34°51'13" W116°47'12"
Élévation : 1930 feet MSL.
Variation magnétique : 15° East
Voir autres Aéroports à California

Données opérationnelles

Special qualification required
Heure actuelle UTC:
Heure actuelle locale:
Météo
METAR: KDAG 290850Z AUTO 28011KT 10SM CLR 28/07 A2996 RMK AO2 SLP111 T02830072 58006
TAF: KDAG 290520Z 2906/3006 26014KT P6SM FEW120 BKN250 FM291200 29008KT P6SM SCT250 FM292100 VRB06KT P6SM SCT120 SCT250 FM300200 25014G23KT P6SM SCT250
Voir NOTAMs / SUP AIP / TFR affectant cet aéroport [VIEW]
Fréquences de communication: [VIEW]

Pistes:

Identifiant RWYQFULongueur (ft)Largeur (ft)SurfaceLDA (ft)
0450°5123100ASPH
22230°5123100ASPH
0889°6402150ASPH
26270°6402150ASPH

Coordonnées de l'aéroport

Adresse: Daggett United States

Vue satellite de KDAG